Time;durP1;ratioP1;P1;durP2;ratioP2;P2;SDS_P1;SDS_P2;PMS_P1;PMS_P2;Temp;Humidity;BMP_temperature;BMP_pressure;BME280_temperature;BME280_humidity;BME280_pressure;Samples;Min_cycle;Max_cycle;Signal;HPM_P1;HPM_P2
2022/06/24 00:04:59;;;;;;;2.08;1.10;;;;;;;21.56;45.79;99573.63;10564185;28;20036;-72
2022/06/24 00:10:01;;;;;;;9.27;1.20;;;;;;;21.37;46.21;99579.66;10565759;28;20088;-72
2022/06/24 00:15:03;;;;;;;8.13;1.30;;;;;;;21.41;46.62;99585.59;10590837;28;20050;-72
2022/06/24 00:20:07;;;;;;;3.25;1.52;;;;;;;21.30;46.83;99582.97;10589827;28;20412;-72
2022/06/24 00:25:19;;;;;;;1.63;1.27;;;;;;;21.32;46.98;99586.38;10590549;28;20390;-73
2022/06/24 00:30:22;;;;;;;3.28;1.40;;;;;;;21.20;47.00;99580.19;10572369;28;20044;-73
2022/06/24 00:35:23;;;;;;;1.40;1.15;;;;;;;21.06;47.45;99586.66;10571953;28;20048;-73
2022/06/24 00:40:27;;;;;;;1.90;1.52;;;;;;;20.98;48.17;99589.13;10571768;28;20039;-73
2022/06/24 00:45:32;;;;;;;2.75;1.50;;;;;;;20.90;48.55;99588.94;10588782;28;20043;-73
2022/06/24 00:50:39;;;;;;;2.50;1.70;;;;;;;21.06;48.46;99591.16;10589062;28;20046;-72
2022/06/24 00:55:46;;;;;;;1.77;1.58;;;;;;;20.95;48.54;99588.56;10588266;28;20067;-72
2022/06/24 01:00:49;;;;;;;3.08;1.20;;;;;;;20.88;48.93;99590.84;10589389;28;20036;-72
2022/06/24 01:05:51;;;;;;;2.50;1.30;;;;;;;20.87;49.08;99591.84;10569912;28;20546;-72
2022/06/24 01:10:53;;;;;;;2.55;1.40;;;;;;;20.70;49.65;99587.84;10587920;28;20036;-73
2022/06/24 01:15:55;;;;;;;1.85;1.20;;;;;;;20.42;50.21;99587.38;10587726;28;20048;-72
2022/06/24 01:20:57;;;;;;;1.90;1.00;;;;;;;20.39;50.68;99586.75;10570039;28;20500;-72
2022/06/24 01:25:58;;;;;;;2.38;1.30;;;;;;;20.31;51.17;99592.69;10587312;28;20051;-73
2022/06/24 01:31:00;;;;;;;2.38;1.35;;;;;;;20.24;51.55;99580.00;10568831;28;20431;-73
2022/06/24 01:36:02;;;;;;;3.45;1.38;;;;;;;20.21;51.48;99580.22;10568768;28;20074;-73
2022/06/24 01:41:03;;;;;;;1.48;1.13;;;;;;;20.23;51.25;99576.47;10568577;28;20399;-73
2022/06/24 01:46:06;;;;;;;1.10;1.00;;;;;;;20.21;51.31;99582.88;10586363;28;20097;-72
2022/06/24 01:51:11;;;;;;;1.75;1.30;;;;;;;20.20;51.71;99575.88;10586040;28;20048;-73
2022/06/24 01:56:13;;;;;;;2.35;1.30;;;;;;;20.01;52.22;99574.63;10585980;28;20438;-73
2022/06/24 02:01:15;;;;;;;2.00;1.50;;;;;;;20.03;52.37;99563.84;10585870;28;20044;-72
2022/06/24 02:06:19;;;;;;;4.00;1.17;;;;;;;20.11;52.16;99564.09;10567329;28;20096;-72
2022/06/24 02:16:43;;;;;;;2.72;1.80;;;;;;;19.77;53.04;99555.19;10585130;28;20039;-72
2022/06/24 02:21:44;;;;;;;3.17;2.08;;;;;;;19.72;52.96;99560.03;10566466;28;20059;-73
2022/06/24 02:26:47;;;;;;;1.55;1.40;;;;;;;19.74;53.03;99566.94;10585363;28;20042;-73
2022/06/24 02:31:49;;;;;;;2.30;1.17;;;;;;;19.48;53.66;99568.94;10565953;28;20047;-73
2022/06/24 02:36:50;;;;;;;1.52;1.38;;;;;;;19.33;54.03;99560.25;10583984;28;20071;-72
2022/06/24 02:41:52;;;;;;;2.15;1.23;;;;;;;19.36;54.35;99559.19;10566687;28;20401;-72
2022/06/24 02:46:54;;;;;;;1.67;1.25;;;;;;;19.37;54.09;99568.88;10584798;28;20044;-72
2022/06/24 02:51:55;;;;;;;1.42;1.13;;;;;;;19.31;54.23;99569.34;10583495;28;20050;-72
2022/06/24 02:56:57;;;;;;;1.50;1.35;;;;;;;19.24;54.53;99570.75;10566576;28;20501;-72
2022/06/24 03:01:59;;;;;;;2.90;1.13;;;;;;;19.12;54.82;99569.84;10583597;28;20036;-72
2022/06/24 03:07:01;;;;;;;3.05;1.17;;;;;;;19.20;54.63;99564.81;10565251;28;20052;-73
2022/06/24 03:12:02;;;;;;;3.10;1.30;;;;;;;19.08;55.52;99569.25;10583719;28;20043;-72
2022/06/24 03:17:04;;;;;;;2.28;1.30;;;;;;;18.87;55.96;99563.69;10584422;28;20039;-73
2022/06/24 03:22:06;;;;;;;1.67;1.30;;;;;;;18.80;56.46;99564.25;10564476;28;20040;-72
2022/06/24 03:27:08;;;;;;;1.92;1.30;;;;;;;18.81;56.37;99566.78;10582650;28;20044;-73
2022/06/24 03:32:09;;;;;;;1.67;1.23;;;;;;;18.96;56.08;99562.16;10564030;28;20062;-73
2022/06/24 03:37:11;;;;;;;5.30;1.33;;;;;;;19.28;55.27;99564.25;10564481;28;20051;-73
2022/06/24 03:42:13;;;;;;;1.67;1.40;;;;;;;19.22;55.37;99562.06;10582887;28;20497;-72
2022/06/24 03:47:14;;;;;;;1.67;1.30;;;;;;;19.28;55.44;99561.56;10570136;28;20049;-71
2022/06/24 03:52:17;;;;;;;2.40;1.42;;;;;;;19.18;55.66;99564.09;10572973;28;20044;-72
2022/06/24 03:57:18;;;;;;;2.40;1.50;;;;;;;19.41;54.61;99563.19;10590480;28;20404;-72
2022/06/24 04:02:21;;;;;;;2.30;1.40;;;;;;;19.59;54.37;99568.09;10590937;28;20039;-73
2022/06/24 04:07:23;;;;;;;1.23;1.10;;;;;;;19.62;54.54;99565.25;10572812;28;20457;-73
2022/06/24 04:12:25;;;;;;;2.33;1.02;;;;;;;19.93;52.76;99558.38;10590481;28;20055;-73
2022/06/24 04:17:26;;;;;;;1.98;1.30;;;;;;;19.81;53.44;99546.00;10589715;28;20067;-73
2022/06/24 04:22:28;;;;;;;3.65;1.23;;;;;;;20.05;52.61;99549.38;10589771;28;20493;-72
2022/06/24 04:27:30;;;;;;;2.63;1.30;;;;;;;20.15;52.19;99553.06;10589432;28;20130;-72
2022/06/24 04:32:33;;;;;;;3.00;1.30;;;;;;;20.50;50.73;99541.41;10589583;28;20039;-72
2022/06/24 04:37:37;;;;;;;2.55;1.42;;;;;;;20.68;50.27;99533.72;10589962;28;20040;-73
2022/06/24 04:42:39;;;;;;;2.83;1.42;;;;;;;20.80;50.13;99532.72;10570224;28;20079;-72
2022/06/24 04:47:41;;;;;;;3.83;1.77;;;;;;;21.02;49.51;99520.25;10589359;28;20040;-73
2022/06/24 04:52:43;;;;;;;4.30;1.58;;;;;;;21.10;49.25;99518.63;10589257;28;20055;-72
2022/06/24 04:57:45;;;;;;;3.13;1.38;;;;;;;21.37;48.92;99517.31;10568587;28;20126;-72
2022/06/24 05:02:48;;;;;;;2.53;1.42;;;;;;;21.47;48.88;99514.72;10573419;22;20437;-72
2022/06/24 05:07:50;;;;;;;4.03;1.55;;;;;;;21.92;47.24;99512.59;10512039;28;20040;-71
2022/06/24 05:12:52;;;;;;;3.58;1.40;;;;;;;22.12;47.03;99514.38;10496008;28;20044;-72
2022/06/24 05:17:54;;;;;;;3.70;1.55;;;;;;;22.36;46.56;99514.06;10509799;28;20486;-72
2022/06/24 05:22:56;;;;;;;3.55;1.90;;;;;;;22.74;46.13;99511.59;10510448;28;20481;-72
2022/06/24 05:27:57;;;;;;;2.15;1.25;;;;;;;23.07;44.50;99502.34;10490108;28;20036;-72
2022/06/24 05:32:59;;;;;;;4.60;1.70;;;;;;;23.56;44.43;99500.47;10504310;28;20040;-72
2022/06/24 05:38:01;;;;;;;2.33;1.23;;;;;;;24.00;43.08;99496.25;10485231;28;20506;-71
2022/06/24 05:43:03;;;;;;;4.50;1.42;;;;;;;24.20;43.26;99488.94;10484705;28;20045;-71
2022/06/24 05:48:05;;;;;;;2.55;1.50;;;;;;;24.40;42.61;99474.44;10507212;28;20135;-69
2022/06/24 05:58:29;;;;;;;2.58;1.40;;;;;;;25.43;40.17;99469.53;10502083;28;20056;-69
2022/06/24 06:03:32;;;;;;;4.65;1.65;;;;;;;25.84;38.43;99467.09;10503417;28;20128;-69
2022/06/24 06:08:35;;;;;;;5.60;1.77;;;;;;;26.10;38.49;99448.22;10501637;28;20048;-70
2022/06/24 06:13:36;;;;;;;4.43;1.70;;;;;;;26.35;38.98;99449.16;10502166;28;20493;-70
2022/06/24 06:18:39;;;;;;;2.35;1.42;;;;;;;26.87;37.48;99432.72;10501795;28;20110;-68
2022/06/24 06:23:43;;;;;;;3.80;1.90;;;;;;;27.14;36.58;99437.84;10484349;28;20567;-69
2022/06/24 06:28:45;;;;;;;5.03;1.48;;;;;;;27.14;36.36;99427.06;10501171;28;20553;-70
2022/06/24 06:33:47;;;;;;;4.63;1.67;;;;;;;27.19;36.47;99429.25;10500737;28;20036;-70
2022/06/24 06:38:49;;;;;;;5.15;1.52;;;;;;;27.65;35.70;99427.63;10482443;28;20044;-70
2022/06/24 06:43:50;;;;;;;2.35;1.30;;;;;;;27.69;35.90;99419.19;10484133;28;20485;-70
2022/06/24 06:48:59;;;;;;;9.32;1.98;;;;;;;27.74;35.06;99424.94;10501484;28;20078;-70
2022/06/24 06:54:00;;;;;;;5.07;1.67;;;;;;;28.00;35.41;99412.00;10483461;28;20045;-70
2022/06/24 06:59:02;;;;;;;3.55;1.70;;;;;;;28.13;34.55;99404.16;10483037;28;20048;-70
2022/06/24 07:04:04;;;;;;;4.25;1.33;;;;;;;28.40;33.97;99404.72;10500118;28;20174;-70
2022/06/24 07:09:06;;;;;;;8.00;1.30;;;;;;;28.74;33.69;99393.50;10501553;28;20375;-69
2022/06/24 07:14:08;;;;;;;3.42;1.50;;;;;;;28.66;33.30;99383.56;10500335;28;20047;-70
2022/06/24 07:19:09;;;;;;;2.67;1.38;;;;;;;28.58;33.80;99386.34;10498557;28;20090;-70
2022/06/24 07:24:11;;;;;;;5.25;1.38;;;;;;;29.22;33.40;99374.31;10480764;28;20071;-69
2022/06/24 07:29:13;;;;;;;5.28;1.45;;;;;;;29.55;32.17;99382.94;10499456;28;20044;-70
2022/06/24 07:34:16;;;;;;;3.78;1.40;;;;;;;29.95;31.81;99370.78;10499364;28;20048;-69
2022/06/24 07:39:17;;;;;;;3.45;1.50;;;;;;;29.16;32.41;99370.47;10498566;28;20068;-70
2022/06/24 07:44:20;;;;;;;4.55;1.30;;;;;;;29.17;32.18;99366.75;10499046;28;20040;-70
2022/06/24 07:49:22;;;;;;;2.83;1.20;;;;;;;29.37;32.02;99358.94;10481457;28;20044;-70
2022/06/24 07:54:24;;;;;;;3.95;1.58;;;;;;;29.77;32.32;99345.97;10498528;28;20462;-70
2022/06/24 07:59:33;;;;;;;2.92;1.55;;;;;;;30.02;31.58;99346.47;10498447;28;20044;-70
2022/06/24 08:04:34;;;;;;;6.80;1.60;;;;;;;29.55;31.86;99339.59;10497264;28;20040;-68
2022/06/24 08:09:37;;;;;;;3.53;1.58;;;;;;;29.85;31.51;99329.59;10479017;28;20071;-69
2022/06/24 08:14:39;;;;;;;2.33;1.15;;;;;;;30.38;30.68;99319.38;10480237;28;20076;-69
2022/06/24 08:19:41;;;;;;;2.55;1.30;;;;;;;30.12;31.26;99317.19;10478573;28;20144;-68
2022/06/24 08:24:43;;;;;;;3.10;1.30;;;;;;;30.73;29.74;99305.94;10496336;28;20040;-68
2022/06/24 08:30:05;;;;;;;4.90;1.20;;;;;;;31.04;28.63;99297.41;10465167;28;20036;-69
2022/06/24 08:35:08;;;;;;;5.72;1.10;;;;;;;31.28;28.66;99299.66;10505132;28;20486;-69
2022/06/24 08:40:28;;;;;;;6.00;1.10;;;;;;;31.01;28.33;99304.06;10504341;28;20045;-69
2022/06/24 08:45:30;;;;;;;2.22;1.05;;;;;;;31.13;29.15;99293.50;10504818;28;20102;-69
2022/06/24 08:50:32;;;;;;;5.88;1.30;;;;;;;31.23;28.35;99295.84;10503675;28;20047;-69
2022/06/24 08:55:39;;;;;;;1.17;1.00;;;;;;;31.37;28.53;99282.16;10505013;28;20079;-69
2022/06/24 09:00:41;;;;;;;3.10;1.00;;;;;;;32.03;27.98;99270.72;10486930;28;20050;-69
2022/06/24 09:05:42;;;;;;;3.03;1.20;;;;;;;32.17;28.24;99271.56;10503228;28;20051;-70
2022/06/24 09:11:06;;;;;;;2.35;1.10;;;;;;;32.40;27.59;99284.81;10503223;28;20482;-70
2022/06/24 09:16:09;;;;;;;3.78;1.25;;;;;;;32.44;28.11;99271.63;10503256;28;20047;-69
2022/06/24 09:21:22;;;;;;;4.32;1.20;;;;;;;32.44;28.61;99277.06;10503487;28;20494;-70
2022/06/24 09:26:33;;;;;;;5.68;1.40;;;;;;;32.79;27.43;99258.66;10485011;28;20064;-71
2022/06/24 09:31:36;;;;;;;4.18;1.30;;;;;;;32.72;27.33;99268.69;10502798;28;20406;-72
2022/06/24 09:36:42;;;;;;;4.85;1.38;;;;;;;32.79;28.46;99259.47;10504985;28;20094;-72
2022/06/24 09:41:46;;;;;;;1.90;1.20;;;;;;;32.93;27.13;99235.81;10506445;28;20056;-72
2022/06/24 09:47:01;;;;;;;5.57;1.37;;;;;;;32.63;27.96;99230.00;10485510;28;20075;-72
2022/06/24 09:52:04;;;;;;;2.40;1.10;;;;;;;33.24;26.74;99226.94;10486992;28;20136;-72
2022/06/24 09:57:08;;;;;;;3.13;1.10;;;;;;;32.94;28.19;99221.19;10485612;28;20056;-72
2022/06/24 10:02:16;;;;;;;1.90;1.30;;;;;;;33.12;27.32;99221.34;10487516;28;20036;-72
2022/06/24 10:07:25;;;;;;;2.65;1.30;;;;;;;31.94;28.34;99216.75;10504274;28;20040;-72
2022/06/24 10:12:38;;;;;;;2.13;1.00;;;;;;;31.71;29.48;99206.25;10503108;28;20040;-72
2022/06/24 10:17:43;;;;;;;2.03;1.00;;;;;;;31.85;29.17;99206.09;10502957;28;20087;-72
2022/06/24 10:22:49;;;;;;;4.38;1.25;;;;;;;32.24;29.81;99204.44;10506537;28;20043;-72
2022/06/24 10:27:58;;;;;;;4.22;2.05;;;;;;;32.16;29.66;99193.78;10489335;28;20399;-72
2022/06/24 10:33:17;;;;;;;3.47;1.40;;;;;;;32.07;29.55;99200.47;10484721;28;20555;-73
2022/06/24 10:38:20;;;;;;;5.45;1.33;;;;;;;32.22;29.43;99214.69;10483874;28;20505;-72
2022/06/24 10:43:35;;;;;;;2.58;1.10;;;;;;;31.80;29.72;99207.72;10484075;28;20074;-72
2022/06/24 10:48:43;;;;;;;4.05;1.30;;;;;;;31.55;29.79;99216.41;10484794;28;20482;-71
2022/06/24 10:54:06;;;;;;;6.97;1.20;;;;;;;31.40;31.06;99219.31;10500313;28;20098;-72
2022/06/24 10:59:09;;;;;;;2.90;1.48;;;;;;;31.15;30.95;99213.50;10500747;28;20032;-71
2022/06/24 11:04:17;;;;;;;2.47;1.60;;;;;;;30.82;32.27;99209.81;10501037;22;20041;-70
2022/06/24 11:09:19;;;;;;;1.45;1.20;;;;;;;30.59;32.24;99218.13;10415793;28;20042;-70
2022/06/24 11:14:25;;;;;;;9.48;1.88;;;;;;;30.33;32.43;99216.94;10442184;28;20053;-71
2022/06/24 11:19:27;;;;;;;2.80;1.48;;;;;;;29.85;33.00;99226.66;10458210;28;20445;-71
2022/06/24 11:24:29;;;;;;;4.38;1.65;;;;;;;29.23;34.25;99216.31;10457479;28;20053;-71
2022/06/24 11:29:54;;;;;;;2.50;1.38;;;;;;;28.99;34.71;99220.16;10458039;28;20120;-70
2022/06/24 11:34:56;;;;;;;5.20;1.30;;;;;;;29.11;34.82;99213.25;10456968;28;20049;-71
2022/06/24 11:39:58;;;;;;;4.13;1.67;;;;;;;28.99;35.30;99223.69;10438944;28;20513;-71
2022/06/24 11:45:00;;;;;;;11.63;1.77;;;;;;;29.08;34.96;99221.72;10438721;28;20045;-71
2022/06/24 11:50:02;;;;;;;3.35;1.70;;;;;;;28.85;35.13;99230.75;10454048;28;20041;-71
2022/06/24 11:55:22;;;;;;;2.83;1.63;;;;;;;29.00;35.83;99227.22;10456363;28;20074;-71
2022/06/24 12:00:26;;;;;;;5.30;2.30;;;;;;;29.31;36.62;99229.75;10453905;28;20041;-71
2022/06/24 12:05:30;;;;;;;4.30;1.98;;;;;;;30.09;36.42;99212.72;10454547;28;20049;-71
2022/06/24 12:10:32;;;;;;;4.13;2.25;;;;;;;31.43;33.90;99199.03;10446413;28;20045;-70
2022/06/24 12:15:37;;;;;;;2.72;1.85;;;;;;;31.58;32.57;99198.88;10463968;28;20049;-70
2022/06/24 12:20:39;;;;;;;5.13;1.80;;;;;;;31.76;32.20;99192.88;10464442;28;20406;-71
2022/06/24 12:25:42;;;;;;;2.10;1.52;;;;;;;31.46;33.30;99195.09;10464492;28;20041;-70
2022/06/24 12:31:05;;;;;;;5.70;1.40;;;;;;;31.35;33.47;99200.06;10463600;28;20040;-71
2022/06/24 12:36:14;;;;;;;3.33;1.73;;;;;;;31.16;33.31;99211.63;10431619;28;20048;-70
2022/06/24 12:41:17;;;;;;;3.25;1.80;;;;;;;30.49;33.67;99214.94;10467959;28;20533;-70
2022/06/24 12:46:21;;;;;;;3.25;1.58;;;;;;;29.94;34.22;99217.38;10446427;28;20506;-70
2022/06/24 12:51:24;;;;;;;2.05;1.67;;;;;;;29.76;35.04;99227.81;10464348;28;20538;-71
2022/06/24 12:56:26;;;;;;;5.22;1.50;;;;;;;29.32;35.83;99242.25;10445837;28;20045;-71
2022/06/24 13:01:28;;;;;;;3.90;1.55;;;;;;;28.92;35.86;99241.69;10464689;28;20441;-71
2022/06/24 13:06:30;;;;;;;3.45;1.85;;;;;;;28.61;36.22;99239.97;10463274;28;20053;-71
2022/06/24 13:11:32;;;;;;;3.88;1.77;;;;;;;28.47;36.70;99242.66;10462536;28;20075;-71
2022/06/24 13:16:34;;;;;;;4.13;1.60;;;;;;;28.48;37.28;99255.97;10463509;28;20064;-71
2022/06/24 13:21:36;;;;;;;7.50;2.13;;;;;;;27.94;38.52;99260.59;10464254;28;20064;-71
2022/06/24 13:26:38;;;;;;;4.90;1.77;;;;;;;27.37;39.68;99248.22;10464947;28;20073;-70
2022/06/24 13:31:41;;;;;;;4.60;2.08;;;;;;;27.01;41.55;99256.75;10465777;28;20112;-71
2022/06/24 13:36:44;;;;;;;5.07;2.10;;;;;;;26.44;42.37;99273.03;10463700;28;20041;-71
2022/06/24 13:41:46;;;;;;;2.63;1.98;;;;;;;26.25;43.31;99268.75;10463580;28;20060;-71
2022/06/24 13:46:48;;;;;;;2.42;2.05;;;;;;;25.91;44.85;99252.75;10446312;28;20094;-71
2022/06/24 13:51:56;;;;;;;4.32;2.40;;;;;;;25.64;46.11;99240.38;10464044;28;20044;-71
2022/06/24 13:56:59;;;;;;;3.97;2.80;;;;;;;25.56;46.86;99237.69;10430153;28;20099;-72
2022/06/24 14:02:01;;;;;;;3.08;2.78;;;;;;;25.36;47.50;99247.84;10445670;28;20048;-72
2022/06/24 14:07:23;;;;;;;4.35;2.50;;;;;;;24.39;51.58;99262.38;10462782;28;20057;-71
2022/06/24 14:12:25;;;;;;;5.47;3.58;;;;;;;23.99;55.13;99266.34;10443404;28;20037;-71
2022/06/24 14:17:27;;;;;;;2.95;2.60;;;;;;;23.48;59.00;99262.44;10461258;28;20127;-71
2022/06/24 14:28:08;;;;;;;4.95;4.18;;;;;;;22.11;69.55;99260.22;10460122;28;20048;-69
2022/06/24 14:33:12;;;;;;;5.70;4.65;;;;;;;21.69;74.41;99262.28;10442355;28;20045;-68
2022/06/24 14:43:34;;;;;;;12.25;7.82;;;;;;;21.01;81.13;99267.41;10458961;28;20037;-70
2022/06/24 14:48:36;;;;;;;7.15;6.28;;;;;;;20.73;84.89;99267.13;10458926;28;20053;-71
2022/06/24 14:53:38;;;;;;;6.25;5.75;;;;;;;20.71;85.59;99249.53;10458852;28;20037;-71
2022/06/24 14:58:40;;;;;;;8.82;5.63;;;;;;;20.64;86.56;99252.75;10458199;28;20041;-71
2022/06/24 15:03:41;;;;;;;6.97;5.65;;;;;;;20.65;87.35;99241.06;10457667;28;20037;-71
2022/06/24 15:08:43;;;;;;;6.75;6.15;;;;;;;20.66;89.94;99221.41;10458142;28;20399;-69
2022/06/24 15:13:46;;;;;;;8.00;7.32;;;;;;;20.53;96.97;99170.03;10457383;28;20047;-70
2022/06/24 15:18:47;;;;;;;8.00;7.35;;;;;;;20.42;98.68;99154.94;10457388;28;20069;-69
2022/06/24 15:23:49;;;;;;;7.80;7.03;;;;;;;20.80;94.37;99171.28;10456805;28;20045;-69
2022/06/24 15:28:51;;;;;;;9.18;8.45;;;;;;;20.68;100.00;99159.03;10457262;28;20073;-69
2022/06/24 15:33:52;;;;;;;9.00;8.30;;;;;;;20.98;99.92;99137.59;10456559;28;20045;-69
2022/06/24 15:38:54;;;;;;;9.13;8.15;;;;;;;21.07;100.00;99139.47;10456425;28;20056;-69
2022/06/24 15:43:58;;;;;;;9.48;8.68;;;;;;;21.10;98.66;99152.53;10456102;28;20041;-69
2022/06/24 15:49:00;;;;;;;8.88;8.15;;;;;;;21.09;98.48;99155.34;10456446;28;20049;-69
2022/06/24 15:54:02;;;;;;;8.50;7.80;;;;;;;21.02;95.89;99155.03;10454022;28;20075;-70
2022/06/24 15:59:04;;;;;;;8.77;8.02;;;;;;;21.02;96.14;99155.03;10437811;28;20049;-69
2022/06/24 16:04:06;;;;;;;9.02;8.20;;;;;;;21.18;98.41;99162.53;10455176;28;20045;-69
2022/06/24 16:09:07;;;;;;;8.40;7.80;;;;;;;21.37;99.43;99175.13;10455747;28;20049;-70
2022/06/24 16:14:09;;;;;;;9.15;8.35;;;;;;;21.60;96.57;99183.72;10439122;28;20449;-70
2022/06/24 16:19:11;;;;;;;7.80;7.05;;;;;;;21.84;92.44;99194.88;10454078;28;20041;-70
2022/06/24 16:24:13;;;;;;;7.25;6.75;;;;;;;21.93;93.65;99198.53;10455182;28;20059;-70
2022/06/24 16:29:15;;;;;;;7.15;6.55;;;;;;;22.00;91.53;99212.19;10456523;28;20118;-70
2022/06/24 16:34:16;;;;;;;6.75;6.35;;;;;;;22.26;90.53;99223.19;10455638;28;20517;-70
2022/06/24 16:39:18;;;;;;;6.93;6.35;;;;;;;22.42;88.97;99232.31;10456023;28;20094;-70
2022/06/24 16:44:20;;;;;;;6.25;5.80;;;;;;;22.32;89.62;99238.69;10456704;28;20128;-71
2022/06/24 16:49:21;;;;;;;6.85;6.35;;;;;;;22.58;88.02;99238.94;10437411;28;20071;-71
2022/06/24 16:54:23;;;;;;;7.78;7.18;;;;;;;22.41;87.58;99241.34;10458907;28;20049;-71
2022/06/24 16:59:25;;;;;;;7.30;6.60;;;;;;;22.56;87.61;99240.91;10444913;28;20048;-70
2022/06/24 17:04:27;;;;;;;7.97;7.30;;;;;;;22.81;86.65;99226.03;10487641;22;20086;-69
2022/06/24 17:09:29;;;;;;;6.80;6.20;;;;;;;23.05;82.81;99225.53;10544907;28;20067;-69
2022/06/24 17:14:30;;;;;;;7.38;6.78;;;;;;;22.80;83.61;99227.88;10576148;28;20050;-69
2022/06/24 17:19:32;;;;;;;6.50;5.55;;;;;;;23.00;81.61;99211.75;10588301;28;20062;-69
2022/06/24 17:24:34;;;;;;;6.03;5.68;;;;;;;22.85;80.87;99204.16;10570383;28;20039;-69
2022/06/24 17:29:35;;;;;;;5.13;4.70;;;;;;;22.92;79.14;99193.72;10571542;28;20044;-69
2022/06/24 17:34:37;;;;;;;6.55;6.00;;;;;;;23.07;77.97;99186.88;10590208;28;20396;-70
2022/06/24 17:39:39;;;;;;;7.63;7.10;;;;;;;22.84;78.65;99188.22;10570121;28;20047;-69
2022/06/24 17:44:41;;;;;;;7.28;6.68;;;;;;;22.79;79.36;99193.16;10568731;28;20053;-69
2022/06/24 17:49:42;;;;;;;6.53;5.93;;;;;;;22.70;80.45;99196.72;10586559;28;20048;-69
2022/06/24 17:54:44;;;;;;;5.70;5.20;;;;;;;22.62;79.28;99192.09;10569403;28;20059;-69
2022/06/24 17:59:46;;;;;;;5.90;5.28;;;;;;;22.50;81.41;99182.56;10588135;28;20411;-70
2022/06/24 18:04:48;;;;;;;7.07;5.47;;;;;;;22.38;80.17;99169.34;10585319;28;20070;-70
2022/06/24 18:09:49;;;;;;;6.95;6.35;;;;;;;22.29;81.04;99161.34;10567448;28;20139;-70
2022/06/24 18:14:53;;;;;;;6.13;5.63;;;;;;;22.25;82.05;99163.44;10586235;28;20043;-69
2022/06/24 18:19:57;;;;;;;6.20;5.70;;;;;;;22.27;81.66;99145.44;10587906;28;20548;-69
2022/06/24 18:24:58;;;;;;;6.55;6.07;;;;;;;22.13;83.05;99161.91;10585839;28;20114;-70
2022/06/24 18:30:00;;;;;;;6.72;6.15;;;;;;;22.17;84.34;99161.47;10584946;28;20126;-70
2022/06/24 18:35:02;;;;;;;6.65;6.05;;;;;;;22.07;84.07;99167.81;10567315;28;20047;-70
2022/06/24 18:40:05;;;;;;;6.43;5.65;;;;;;;22.07;83.62;99160.63;10568344;28;20043;-69
2022/06/24 18:45:07;;;;;;;6.53;5.93;;;;;;;22.05;83.43;99164.47;10584475;28;20118;-70
2022/06/24 18:50:09;;;;;;;6.20;5.57;;;;;;;21.98;82.48;99158.81;10583549;28;20031;-70
2022/06/24 18:55:12;;;;;;;6.10;5.70;;;;;;;21.95;81.78;99167.13;10584209;28;20054;-70
2022/06/24 19:00:15;;;;;;;5.40;5.00;;;;;;;21.90;81.80;99182.75;10585463;28;20044;-69
2022/06/24 19:05:16;;;;;;;5.15;4.82;;;;;;;21.71;84.01;99188.97;10566491;28;20144;-70
2022/06/24 19:10:19;;;;;;;13.68;5.72;;;;;;;21.58;85.00;99196.41;10565541;28;20043;-69
2022/06/24 19:15:21;;;;;;;5.78;5.28;;;;;;;21.47;86.26;99212.56;10582708;28;20048;-70
2022/06/24 19:20:22;;;;;;;7.57;7.03;;;;;;;21.28;88.60;99224.03;10583524;28;20039;-70
2022/06/24 19:25:26;;;;;;;6.70;6.10;;;;;;;21.46;87.25;99235.78;10586174;28;20043;-70
2022/06/24 19:30:28;;;;;;;5.80;5.40;;;;;;;21.44;82.92;99248.47;10565037;28;20118;-69
2022/06/24 19:35:30;;;;;;;5.78;5.28;;;;;;;21.40;82.61;99269.28;10583058;28;20054;-69
2022/06/24 19:40:37;;;;;;;6.35;5.80;;;;;;;21.30;82.37;99278.22;10584090;28;20035;-70
2022/06/24 19:45:39;;;;;;;6.22;5.63;;;;;;;21.16;83.48;99284.75;10586904;28;20043;-70
2022/06/24 19:50:41;;;;;;;5.72;5.22;;;;;;;20.96;84.42;99274.97;10583148;28;20067;-72
2022/06/24 19:55:48;;;;;;;6.63;5.63;;;;;;;20.92;85.63;99275.22;10583567;28;20048;-69
2022/06/24 20:00:51;;;;;;;5.60;5.18;;;;;;;20.77;85.92;99287.25;10582814;28;20050;-70
2022/06/24 20:05:53;;;;;;;6.30;5.80;;;;;;;20.52;87.89;99261.78;10582725;28;20131;-69
2022/06/24 20:10:57;;;;;;;6.20;5.70;;;;;;;20.58;86.94;99260.41;10583364;28;20040;-70
2022/06/24 20:15:59;;;;;;;5.80;5.40;;;;;;;20.56;86.95;99275.72;10581603;28;20067;-69
2022/06/24 20:21:02;;;;;;;7.30;6.80;;;;;;;20.45;89.61;99283.75;10582168;28;20038;-70
2022/06/24 20:26:08;;;;;;;6.50;5.97;;;;;;;20.52;87.70;99288.50;10581912;28;20044;-71
2022/06/24 20:31:10;;;;;;;6.90;6.30;;;;;;;20.54;87.23;99283.00;10592850;28;20039;-69
2022/06/24 20:36:12;;;;;;;6.88;6.30;;;;;;;20.39;88.39;99277.97;10589043;28;20047;-69
2022/06/24 20:41:14;;;;;;;6.88;6.45;;;;;;;20.38;88.33;99259.41;10589034;28;20075;-69
2022/06/24 20:46:15;;;;;;;8.73;8.07;;;;;;;20.21;89.43;99266.19;10589595;28;20066;-69
2022/06/24 20:51:17;;;;;;;7.95;7.45;;;;;;;20.21;89.54;99274.19;10590335;28;20067;-69
2022/06/24 20:56:21;;;;;;;9.07;8.43;;;;;;;19.94;91.61;99276.47;10570157;28;20480;-69
2022/06/24 21:01:22;;;;;;;9.80;9.20;;;;;;;19.91;91.88;99282.91;10587914;28;20039;-69
2022/06/24 21:06:24;;;;;;;8.90;8.35;;;;;;;20.09;88.94;99280.53;10588424;28;20130;-69
2022/06/24 21:11:26;;;;;;;9.05;8.45;;;;;;;19.96;90.04;99269.19;10588742;28;20508;-69
2022/06/24 21:16:28;;;;;;;9.18;8.57;;;;;;;19.84;91.88;99266.56;10590119;28;20044;-69
2022/06/24 21:21:29;;;;;;;9.95;9.25;;;;;;;19.73;92.93;99273.75;10588228;28;20044;-69
2022/06/24 21:26:31;;;;;;;10.95;10.35;;;;;;;19.60;94.05;99273.88;10569490;28;20054;-70
2022/06/24 21:31:33;;;;;;;10.50;9.77;;;;;;;19.62;93.94;99277.31;10587596;28;20043;-69
2022/06/24 21:36:35;;;;;;;10.07;9.27;;;;;;;20.03;89.41;99273.91;10571592;28;20067;-69
2022/06/24 21:41:37;;;;;;;8.80;8.00;;;;;;;20.03;89.09;99276.56;10568679;28;20047;-68
2022/06/24 21:46:39;;;;;;;9.30;8.60;;;;;;;19.96;89.16;99283.38;10588133;28;20047;-68
2022/06/24 21:51:41;;;;;;;9.20;8.60;;;;;;;19.78;90.52;99291.06;10586256;28;20040;-69
2022/06/24 21:56:51;;;;;;;9.40;8.40;;;;;;;19.65;93.00;99290.34;10569999;28;20047;-68
2022/06/24 22:01:52;;;;;;;10.02;9.30;;;;;;;19.99;90.32;99306.28;10586451;28;20115;-68
2022/06/24 22:06:54;;;;;;;9.85;8.98;;;;;;;19.66;93.35;99310.75;10585369;28;20090;-68
2022/06/24 22:11:56;;;;;;;9.60;8.98;;;;;;;19.67;93.35;99295.59;10566973;28;20054;-69
2022/06/24 22:16:58;;;;;;;12.52;11.73;;;;;;;19.71;92.22;99294.38;10585608;28;20043;-68
2022/06/24 22:21:59;;;;;;;12.38;11.57;;;;;;;19.44;95.06;99295.59;10587065;28;20070;-68
2022/06/24 22:27:01;;;;;;;14.43;13.35;;;;;;;19.23;96.09;99300.81;10567394;28;20040;-69
2022/06/24 22:32:03;;;;;;;11.77;10.98;;;;;;;19.27;95.17;99293.44;10584389;28;20043;-69
2022/06/24 22:37:05;;;;;;;12.75;11.80;;;;;;;19.32;93.19;99302.75;10566510;28;20093;-69
2022/06/24 22:42:07;;;;;;;11.88;11.05;;;;;;;19.23;93.56;99298.16;10585427;28;20046;-69
2022/06/24 22:47:08;;;;;;;12.50;11.80;;;;;;;19.23;93.87;99294.63;10565615;28;20032;-69
2022/06/24 22:52:10;;;;;;;11.60;10.88;;;;;;;19.38;92.64;99304.91;10565265;28;20058;-68
2022/06/24 22:57:14;;;;;;;10.30;9.70;;;;;;;19.23;92.41;99315.94;10583434;28;20119;-68
2022/06/24 23:02:16;;;;;;;11.25;10.55;;;;;;;19.19;92.01;99311.84;10564824;28;20389;-68
2022/06/24 23:07:18;;;;;;;10.18;9.55;;;;;;;19.08;93.25;99313.53;10535974;22;20047;-71
2022/06/24 23:12:19;;;;;;;11.60;10.77;;;;;;;19.21;92.13;99317.88;10481258;28;20052;-72
2022/06/24 23:17:21;;;;;;;11.63;10.60;;;;;;;19.07;94.15;99318.97;10499335;28;20067;-72
2022/06/24 23:22:22;;;;;;;12.32;11.48;;;;;;;19.08;93.89;99318.84;10499233;28;20033;-73
2022/06/24 23:27:25;;;;;;;10.45;9.73;;;;;;;19.06;93.24;99315.44;10497570;28;20172;-73
2022/06/24 23:32:26;;;;;;;11.75;10.88;;;;;;;18.99;93.70;99326.69;10498528;28;20062;-73
2022/06/24 23:37:28;;;;;;;10.13;9.23;;;;;;;18.95;94.70;99330.56;10498866;28;20409;-72
2022/06/24 23:42:30;;;;;;;10.38;9.68;;;;;;;18.90;94.72;99325.59;10498520;28;20478;-72
2022/06/24 23:47:32;;;;;;;9.10;8.40;;;;;;;18.98;94.77;99322.34;10498862;28;20055;-72
2022/06/24 23:52:35;;;;;;;10.10;9.40;;;;;;;19.07;94.36;99334.94;10498719;28;20049;-72